Time;durP1;ratioP1;P1;durP2;ratioP2;P2;SDS_P1;SDS_P2;PMS_P1;PMS_P2;Temp;Humidity;BMP_temperature;BMP_pressure;BME280_temperature;BME280_humidity;BME280_pressure;Samples;Min_cycle;Max_cycle;Signal;HPM_P1;HPM_P2
2023/01/21 00:01:47;;;;;;;;;10.50;10.00;;;;;0.40;75.37;101175.50;5017578;28;45312;-72
2023/01/21 00:04:13;;;;;;;;;14.25;10.25;;;;;0.31;75.50;101165.34;5016469;28;45703;-71
2023/01/21 00:06:39;;;;;;;;;11.00;11.00;;;;;0.37;75.83;101172.66;5016609;28;45485;-72
2023/01/21 00:09:04;;;;;;;;;13.25;11.00;;;;;0.36;75.54;101176.91;5016864;28;46103;-68
2023/01/21 00:11:30;;;;;;;;;10.25;7.00;;;;;0.35;75.40;101177.69;5017587;28;45338;-72
2023/01/21 00:13:57;;;;;;;;;11.00;10.00;;;;;0.35;75.11;101174.22;5031064;28;47635;-72
2023/01/21 00:16:22;;;;;;;;;8.50;7.00;;;;;0.35;75.05;101171.66;5016810;28;45438;-72
2023/01/21 00:18:48;;;;;;;;;5.00;4.50;;;;;0.34;74.65;101170.75;5016793;28;45396;-72
2023/01/21 00:21:13;;;;;;;;;7.25;7.00;;;;;0.33;75.25;101173.19;5016598;28;45426;-71
2023/01/21 00:23:39;;;;;;;;;12.75;10.00;;;;;0.27;75.41;101163.31;5016767;28;45504;-72
2023/01/21 00:26:07;;;;;;;;;5.00;5.00;;;;;-0.07;75.58;101111.78;5016822;28;45316;-73
2023/01/21 00:28:35;;;;;;;;;3.50;2.00;;;;;0.29;75.68;101171.16;5016848;28;45212;-70
2023/01/21 00:31:02;;;;;;;;;4.00;2.00;;;;;0.27;75.64;101172.69;5016919;28;45582;-71
2023/01/21 00:33:29;;;;;;;;;4.00;2.00;;;;;0.05;75.88;101137.56;5016477;28;45492;-73
2023/01/21 00:36:07;;;;;;;;;4.00;4.00;;;;;0.22;75.98;101173.97;5015797;28;45386;-71
2023/01/21 00:38:33;;;;;;;;;4.50;4.00;;;;;0.14;76.11;101161.44;5015557;28;45462;-67
2023/01/21 00:41:07;;;;;;;;;2.00;2.00;;;;;0.13;75.38;101172.47;5017189;28;45427;-73
2023/01/21 00:43:35;;;;;;;;;8.50;8.50;;;;;0.08;76.20;101175.44;5015987;28;45419;-69
2023/01/21 00:46:01;;;;;;;;;33.50;30.75;;;;;0.03;76.27;101167.34;5031351;28;45701;-72
2023/01/21 00:48:29;;;;;;;;;8.50;4.75;;;;;-0.03;76.85;101164.28;5016337;28;45432;-73
2023/01/21 00:50:59;;;;;;;;;13.00;7.00;;;;;-0.03;76.67;101172.00;5016072;28;45450;-73
2023/01/21 00:53:25;;;;;;;;;22.25;15.75;;;;;-0.06;75.88;101174.28;5015514;28;45413;-73
2023/01/21 00:55:52;;;;;;;;;18.50;17.50;;;;;-0.31;76.87;101133.78;5015905;28;45376;-72
2023/01/21 00:58:18;;;;;;;;;22.75;19.25;;;;;-0.13;77.07;101169.44;5016289;28;45513;-73
2023/01/21 01:00:44;;;;;;;;;2.00;2.00;;;;;-0.17;77.54;101178.56;5016322;28;45477;-72
2023/01/21 01:03:10;;;;;;;;;13.00;10.75;;;;;-0.18;77.34;101179.31;5015313;28;45517;-71
2023/01/21 01:05:38;;;;;;;;;41.50;37.25;;;;;-0.17;77.39;101177.66;5010154;28;45825;-71
2023/01/21 01:08:04;;;;;;;;;3.00;2.00;;;;;-0.42;77.59;101139.66;5022113;28;45563;-68
2023/01/21 01:10:36;;;;;;;;;5.00;4.00;;;;;-0.21;76.99;101166.25;5016853;28;46085;-72
2023/01/21 01:13:01;;;;;;;;;5.25;5.25;;;;;-0.16;77.46;101176.88;5015572;28;45513;-72
2023/01/21 01:15:27;;;;;;;;;5.50;4.75;;;;;-0.33;77.09;101142.13;5015953;28;45258;-72
2023/01/21 01:17:55;;;;;;;;;1.00;1.00;;;;;-0.14;76.81;101177.91;5016064;28;45256;-72
2023/01/21 01:20:21;;;;;;;;;1.50;1.00;;;;;-0.43;76.34;101125.06;5015830;28;45349;-72
2023/01/21 01:22:46;;;;;;;;;1.50;1.00;;;;;-0.14;76.19;101178.84;5014992;28;46126;-72
2023/01/21 01:25:12;;;;;;;;;1.25;1.25;;;;;-0.16;76.79;101176.88;5015827;28;45428;-72
2023/01/21 01:27:37;;;;;;;;;2.00;1.00;;;;;-0.16;76.28;101179.44;5015715;28;45547;-71
2023/01/21 01:30:04;;;;;;;;;1.00;1.00;;;;;-0.15;75.77;101176.13;5016289;28;45436;-72
2023/01/21 01:32:29;;;;;;;;;1.00;1.00;;;;;-0.15;75.63;101178.69;5015206;28;45565;-72
2023/01/21 01:34:55;;;;;;;;;0.00;0.00;;;;;-0.16;76.09;101174.31;5015886;28;45477;-71
2023/01/21 01:37:21;;;;;;;;;2.00;0.00;;;;;-0.19;76.06;101168.94;5015693;28;45559;-70
2023/01/21 01:39:46;;;;;;;;;1.00;1.00;;;;;-0.15;75.73;101181.25;5016171;28;45768;-70
2023/01/21 01:42:16;;;;;;;;;0.00;0.00;;;;;-0.21;76.15;101172.25;5015085;28;46309;-70
2023/01/21 01:45:16;;;;;;;;;0.00;0.00;;;;;-0.18;76.71;101176.75;5001107;28;45560;-71
2023/01/21 01:47:56;;;;;;;;;3.75;1.00;;;;;-0.19;76.52;101179.22;4998633;28;45534;-70
2023/01/21 01:50:26;;;;;;;;;2.25;2.25;;;;;-0.24;76.22;101177.16;5018417;28;45536;-71
2023/01/21 01:52:51;;;;;;;;;0.25;0.25;;;;;-0.36;76.13;101164.97;5019124;28;45371;-71
2023/01/21 01:55:17;;;;;;;;;0.00;0.00;;;;;-0.34;75.99;101183.97;5018594;28;45334;-72
2023/01/21 01:57:47;;;;;;;;;1.00;1.00;;;;;-0.64;76.87;101152.38;5018230;28;45292;-71
2023/01/21 02:00:13;;;;;;;;;0.75;0.00;;;;;-0.49;77.23;101187.03;5019508;28;45551;-71
2023/01/21 02:02:40;;;;;;;;;2.25;2.00;;;;;-0.52;77.29;101191.00;5003817;28;46016;-72
2023/01/21 02:05:09;;;;;;;;;1.00;1.00;;;;;-0.57;77.49;101193.19;5018921;28;45429;-72
2023/01/21 02:07:42;;;;;;;;;1.50;1.50;;;;;-0.58;77.33;101198.19;5019235;28;45481;-72
2023/01/21 02:10:13;;;;;;;;;3.50;2.00;;;;;-0.68;77.44;101182.00;5019099;28;45465;-71
2023/01/21 02:12:42;;;;;;;;;1.75;1.00;;;;;-0.65;77.41;101183.97;5017735;28;46007;-71
2023/01/21 02:15:09;;;;;;;;;2.25;2.25;;;;;-0.68;77.70;101187.13;5019240;28;45241;-72
2023/01/21 02:18:28;;;;;;;;;1.00;1.00;;;;;-1.03;78.23;101144.00;5019134;28;45334;-72
2023/01/21 02:20:54;;;;;;;;;3.00;3.00;;;;;-0.66;78.15;101203.59;4969174;28;45459;-72
2023/01/21 02:23:35;;;;;;;;;3.00;3.00;;;;;-0.70;78.31;101203.19;5018855;28;45858;-71
2023/01/21 02:26:22;;;;;;;;;2.50;1.00;;;;;-0.72;78.44;101204.72;5017340;28;45643;-72
2023/01/21 02:29:08;;;;;;;;;3.25;3.25;;;;;-0.77;78.44;101195.75;5013733;28;45462;-72
2023/01/21 02:31:52;;;;;;;;;3.25;3.25;;;;;-0.76;78.52;101194.97;5019466;28;45525;-73
2023/01/21 02:34:47;;;;;;;;;3.75;3.50;;;;;-0.74;78.39;101193.44;5018792;28;45480;-73
2023/01/21 02:37:35;;;;;;;;;4.00;3.50;;;;;-0.74;78.58;101196.88;5018792;28;45331;-73
2023/01/21 02:40:19;;;;;;;;;4.00;4.00;;;;;-0.73;78.11;101202.94;4996197;28;45591;-71
2023/01/21 02:42:47;;;;;;;;;3.75;3.00;;;;;-0.96;78.15;101159.91;5019035;28;45283;-71
2023/01/21 02:45:23;;;;;;;;;3.25;3.00;;;;;-0.73;77.83;101206.38;5017898;28;45340;-71
2023/01/21 02:47:53;;;;;;;;;2.25;2.25;;;;;-0.72;77.40;101204.72;5017853;28;45228;-71
2023/01/21 02:50:34;;;;;;;;;3.00;3.00;;;;;-1.23;77.26;101118.34;5018270;28;45470;-71
2023/01/21 02:53:01;;;;;;;;;3.00;3.00;;;;;-0.85;76.98;101187.38;5018818;28;45378;-72
2023/01/21 02:55:31;;;;;;;;;3.50;3.00;;;;;-0.72;77.52;101218.44;5017391;28;45581;-72
2023/01/21 02:58:14;;;;;;;;;4.25;3.00;;;;;-1.04;77.31;101160.13;5017761;28;45363;-71
2023/01/21 03:00:54;;;;;;;;;6.00;4.00;;;;;-0.73;77.46;101208.97;5018287;28;45413;-72
2023/01/21 03:03:46;;;;;;;;;6.75;5.25;;;;;-0.73;77.16;101216.66;5017687;28;45784;-72
2023/01/21 03:06:12;;;;;;;;;2.75;2.75;;;;;-0.72;77.37;101210.75;5017732;28;46240;-71
2023/01/21 03:09:21;;;;;;;;;2.00;1.50;;;;;-1.11;78.21;101149.25;5018214;28;45329;-72
2023/01/21 03:12:14;;;;;;;;;4.00;2.75;;;;;-0.79;77.71;101200.75;4976257;28;45575;-72
2023/01/21 03:17:43;;;;;;;;;0.75;0.75;;;;;-0.82;77.45;101201.38;5017488;28;45864;-71
2023/01/21 03:20:21;;;;;;;;;2.75;2.75;;;;;-0.89;77.87;101206.75;5017540;28;45414;-72
2023/01/21 03:22:48;;;;;;;;;3.25;2.75;;;;;-0.91;77.70;101198.03;5016074;28;45323;-72
2023/01/21 03:25:16;;;;;;;;;3.00;3.00;;;;;-0.96;77.91;101193.25;5017237;28;45485;-71
2023/01/21 03:27:45;;;;;;;;;1.25;1.25;;;;;-0.98;77.55;101190.56;5002720;28;46120;-70
2023/01/21 03:30:17;;;;;;;;;5.75;4.00;;;;;-1.02;78.00;101197.06;5018086;28;45196;-72
2023/01/21 03:32:48;;;;;;;;;3.00;3.00;;;;;-1.05;77.88;101189.13;5018300;28;45366;-68
2023/01/21 03:35:18;;;;;;;;;2.00;2.00;;;;;-1.05;77.88;101186.56;5017514;28;45550;-71
2023/01/21 03:37:51;;;;;;;;;0.75;0.75;;;;;-1.06;78.04;101189.00;5017676;28;45311;-71
2023/01/21 03:40:27;;;;;;;;;4.00;2.00;;;;;-1.07;78.50;101188.09;5017752;28;45328;-72
2023/01/21 03:42:55;;;;;;;;;1.00;1.00;;;;;-1.06;78.05;101182.19;5017207;28;45496;-71
2023/01/21 03:45:42;;;;;;;;;2.50;1.00;;;;;-1.06;77.75;101181.31;5017791;28;45545;-71
2023/01/21 03:48:32;;;;;;;;;0.50;0.50;;;;;-1.05;78.26;101175.41;5017309;28;46532;-71
2023/01/21 03:51:07;;;;;;;;;2.75;1.00;;;;;-1.26;78.19;101139.44;5017529;28;45410;-71
2023/01/21 03:53:32;;;;;;;;;1.00;1.00;;;;;-1.07;79.25;101175.28;5017469;28;45463;-72
2023/01/21 03:55:58;;;;;;;;;1.00;1.00;;;;;-1.11;78.98;101182.59;5017409;28;45376;-72
2023/01/21 03:58:25;;;;;;;;;1.00;1.00;;;;;-1.11;78.90;101180.03;5016899;28;46131;-72
2023/01/21 04:00:50;;;;;;;;;0.00;0.00;;;;;-1.10;78.32;101176.69;5016851;28;45497;-72
2023/01/21 04:03:16;;;;;;;;;2.25;0.75;;;;;-1.12;78.94;101175.66;5016799;28;45560;-71
2023/01/21 04:05:41;;;;;;;;;3.00;2.75;;;;;-1.10;79.04;101177.56;5018065;28;45268;-71
2023/01/21 04:08:08;;;;;;;;;2.50;0.75;;;;;-1.08;79.04;101170.91;5016360;28;46535;-72
2023/01/21 04:10:33;;;;;;;;;0.25;0.25;;;;;-1.07;79.06;101175.28;5016333;28;45213;-71
2023/01/21 04:12:59;;;;;;;;;0.00;0.00;;;;;-1.07;78.50;101165.03;5017471;28;45287;-72
2023/01/21 04:15:25;;;;;;;;;0.00;0.00;;;;;-1.07;78.54;101170.16;5015673;28;45359;-73
2023/01/21 04:17:50;;;;;;;;;3.00;0.00;;;;;-1.06;78.37;101166.81;5015973;28;46047;-71
2023/01/21 04:20:16;;;;;;;;;0.00;0.00;;;;;-1.05;78.23;101176.31;5015867;28;45594;-70
2023/01/21 04:22:41;;;;;;;;;0.00;0.00;;;;;-1.05;78.05;101178.00;5017063;28;45656;-73
2023/01/21 04:25:08;;;;;;;;;0.50;0.00;;;;;-1.05;77.37;101178.00;5017550;28;45384;-73
2023/01/21 04:27:34;;;;;;;;;1.00;1.00;;;;;-1.05;77.61;101178.00;4998721;28;47765;-73
2023/01/21 04:29:59;;;;;;;;;2.25;0.50;;;;;-1.04;77.63;101179.75;5014346;28;45427;-73
2023/01/21 04:32:25;;;;;;;;;3.00;3.00;;;;;-1.05;77.75;101184.00;5005319;28;45578;-73
2023/01/21 04:34:50;;;;;;;;;3.00;1.00;;;;;-1.25;77.91;101137.81;5017068;28;45403;-73
2023/01/21 04:37:16;;;;;;;;;1.50;1.50;;;;;-1.04;78.08;101179.75;5016978;28;46101;-71
2023/01/21 04:39:41;;;;;;;;;1.00;0.25;;;;;-1.10;78.10;101180.13;5000388;28;45610;-72
2023/01/21 04:42:07;;;;;;;;;1.00;1.00;;;;;-1.03;77.67;101190.16;5016759;28;45232;-73
2023/01/21 04:44:32;;;;;;;;;1.00;1.00;;;;;-1.03;77.98;101187.59;5016897;28;47100;-72
2023/01/21 04:46:58;;;;;;;;;3.50;1.00;;;;;-1.01;77.56;101198.88;5016002;28;45576;-72
2023/01/21 04:49:23;;;;;;;;;1.00;1.00;;;;;-1.01;77.90;101193.75;5016454;28;45489;-72
2023/01/21 04:51:49;;;;;;;;;1.00;1.00;;;;;-1.01;77.66;101191.19;5016030;28;46093;-71
2023/01/21 04:54:16;;;;;;;;;1.00;1.00;;;;;-1.02;78.02;101193.63;5017593;28;45334;-71
2023/01/21 04:56:44;;;;;;;;;3.00;1.00;;;;;-1.09;77.31;101192.19;5015511;28;46111;-70
2023/01/21 04:59:10;;;;;;;;;1.00;1.00;;;;;-1.10;77.60;101192.94;5016386;28;45497;-72
2023/01/21 05:01:35;;;;;;;;;0.00;0.00;;;;;-1.12;77.52;101194.50;5016365;28;45391;-73
2023/01/21 05:04:01;;;;;;;;;0.00;0.00;;;;;-1.15;77.40;101196.81;5016311;28;45529;-72
2023/01/21 05:06:26;;;;;;;;;0.00;0.00;;;;;-1.17;77.39;101189.72;5015878;28;46065;-71
2023/01/21 05:08:52;;;;;;;;;1.00;1.00;;;;;-1.23;77.90;101187.53;5016348;28;45524;-71
2023/01/21 05:11:19;;;;;;;;;0.00;0.00;;;;;-1.26;77.82;101200.09;5016760;28;45511;-73
2023/01/21 05:13:44;;;;;;;;;1.00;1.00;;;;;-1.31;77.89;101189.44;5016843;28;45387;-72
2023/01/21 05:16:10;;;;;;;;;1.00;1.00;;;;;-1.33;78.37;101198.66;5016147;28;46005;-71
2023/01/21 05:18:36;;;;;;;;;1.00;1.00;;;;;-1.35;78.58;101196.69;5015806;28;45373;-72
2023/01/21 05:21:02;;;;;;;;;3.00;1.00;;;;;-1.54;78.04;101160.88;5015957;28;45553;-71
2023/01/21 05:23:28;;;;;;;;;1.50;1.50;;;;;-1.62;78.51;101144.84;5018588;28;45691;-70
2023/01/21 05:25:56;;;;;;;;;2.25;1.00;;;;;-1.36;78.64;101188.13;5019343;28;45946;-70
2023/01/21 05:28:21;;;;;;;;;1.00;1.00;;;;;-1.34;77.77;101184.03;5018739;28;45738;-72
2023/01/21 05:30:47;;;;;;;;;1.00;1.00;;;;;-1.70;77.67;101113.44;5019601;28;45525;-71
2023/01/21 05:33:13;;;;;;;;;0.00;0.00;;;;;-1.36;77.73;101174.41;5019169;28;45564;-70
2023/01/21 05:35:38;;;;;;;;;1.00;1.00;;;;;-1.36;77.77;101174.41;5022289;28;46000;-71
2023/01/21 05:38:04;;;;;;;;;0.25;0.25;;;;;-1.38;77.98;101166.59;5022673;28;45241;-70
2023/01/21 05:40:31;;;;;;;;;0.50;0.50;;;;;-1.36;77.97;101161.59;5019127;28;45445;-72
2023/01/21 05:42:57;;;;;;;;;2.50;1.00;;;;;-1.43;78.17;101145.69;5018654;28;45277;-72
2023/01/21 05:45:23;;;;;;;;;1.00;1.00;;;;;-1.36;77.08;101171.84;5018730;28;45551;-67
2023/01/21 05:47:48;;;;;;;;;0.00;0.00;;;;;-1.46;77.35;101170.16;5015677;28;45501;-68
2023/01/21 05:50:14;;;;;;;;;0.75;0.75;;;;;-1.39;77.59;101177.63;5020001;28;45403;-71
2023/01/21 05:52:39;;;;;;;;;1.00;0.75;;;;;-1.54;77.58;101158.34;5018188;28;45560;-69
2023/01/21 05:55:06;;;;;;;;;1.00;1.00;;;;;-1.42;77.31;101179.91;5018265;28;46009;-73
2023/01/21 05:57:31;;;;;;;;;1.00;1.00;;;;;-1.40;77.56;101183.50;5018489;28;45510;-69
2023/01/21 05:59:57;;;;;;;;;1.00;1.00;;;;;-1.42;78.01;101178.22;5018786;28;45466;-71
2023/01/21 06:02:23;;;;;;;;;1.00;1.00;;;;;-1.41;77.66;101177.47;5017870;28;45472;-72
2023/01/21 06:04:49;;;;;;;;;3.75;2.50;;;;;-1.64;77.55;101141.25;5020478;28;46246;-69
2023/01/21 06:07:15;;;;;;;;;1.50;1.50;;;;;-1.46;77.43;101173.59;5016085;28;45546;-72
2023/01/21 06:09:40;;;;;;;;;0.75;0.75;;;;;-1.40;77.21;101175.81;5017861;28;45220;-72
2023/01/21 06:12:06;;;;;;;;;3.00;0.75;;;;;-1.43;77.20;101176.44;5017147;28;45467;-72
2023/01/21 06:14:31;;;;;;;;;3.00;1.00;;;;;-1.37;77.30;101187.97;5018567;28;45431;-72
2023/01/21 06:16:57;;;;;;;;;1.50;1.00;;;;;-1.37;77.46;101187.97;5018503;28;45683;-71
2023/01/21 06:19:22;;;;;;;;;0.00;0.00;;;;;-1.38;77.61;101194.78;5017844;28;45304;-70
2023/01/21 06:21:48;;;;;;;;;0.50;0.50;;;;;-1.70;77.00;101145.84;5018817;28;45390;-71
2023/01/21 06:24:14;;;;;;;;;1.00;1.00;;;;;-1.58;77.34;101177.66;5017300;28;46041;-72
2023/01/21 06:26:39;;;;;;;;;2.50;1.00;;;;;-1.37;77.35;101211.97;5017993;28;45492;-72
2023/01/21 06:29:05;;;;;;;;;1.00;1.00;;;;;-1.35;77.63;101215.56;5017778;28;45505;-71
2023/01/21 06:31:30;;;;;;;;;1.00;0.00;;;;;-1.36;77.55;101206.06;5018470;28;45516;-73
2023/01/21 06:33:56;;;;;;;;;0.00;0.00;;;;;-1.21;77.54;101209.09;5016628;28;47111;-72
2023/01/21 06:36:22;;;;;;;;;2.75;2.75;;;;;-1.13;77.52;101209.75;5036549;28;45552;-71
2023/01/21 06:38:47;;;;;;;;;5.50;5.00;;;;;-1.07;77.38;101224.00;5016616;28;45705;-72
2023/01/21 06:41:13;;;;;;;;;1.00;1.00;;;;;-1.01;76.99;101223.63;5018592;28;45569;-72
2023/01/21 06:43:38;;;;;;;;;1.50;1.50;;;;;-0.92;76.88;101229.53;5018268;28;46449;-73
2023/01/21 06:46:04;;;;;;;;;6.50;5.75;;;;;-0.87;76.79;101240.22;5019017;28;45562;-73
2023/01/21 06:48:29;;;;;;;;;1.00;1.00;;;;;-0.79;76.63;101231.53;5018316;28;45475;-72
2023/01/21 06:50:55;;;;;;;;;1.25;1.00;;;;;-0.73;76.44;101218.31;5019055;28;45429;-72
2023/01/21 06:53:20;;;;;;;;;1.00;1.00;;;;;-0.69;76.36;101228.09;5018815;28;45942;-72
2023/01/21 06:55:46;;;;;;;;;1.00;1.00;;;;;-0.73;76.39;101211.53;5017537;28;45530;-72
2023/01/21 06:58:13;;;;;;;;;0.75;0.75;;;;;-0.81;76.22;101197.16;5017732;28;45418;-72
2023/01/21 07:00:38;;;;;;;;;0.25;0.25;;;;;-0.65;75.90;101222.44;5003532;28;45478;-72
2023/01/21 07:03:07;;;;;;;;;5.00;4.00;;;;;-0.57;75.93;101241.97;5020281;28;45968;-72
2023/01/21 07:05:32;;;;;;;;;3.00;3.00;;;;;-0.89;76.16;101193.03;5019887;28;45482;-69
2023/01/21 07:07:58;;;;;;;;;2.25;1.50;;;;;-0.58;76.09;101252.09;5019484;28;45595;-72
2023/01/21 07:10:24;;;;;;;;;4.00;1.00;;;;;-0.63;75.77;101246.56;5022006;28;45543;-72
2023/01/21 07:12:50;;;;;;;;;2.00;1.00;;;;;-0.79;76.20;101221.25;5012581;28;46064;-73
2023/01/21 07:15:16;;;;;;;;;5.00;5.00;;;;;-0.64;76.13;101250.81;5012005;28;45672;-71
2023/01/21 07:17:42;;;;;;;;;12.75;10.00;;;;;-0.63;76.04;101250.03;5034903;28;45609;-70
2023/01/21 07:20:11;;;;;;;;;25.00;22.25;;;;;-0.64;76.06;101266.22;5020551;28;45491;-73
2023/01/21 07:22:37;;;;;;;;;0.75;0.00;;;;;-0.69;76.10;101272.59;5020248;28;46151;-70
2023/01/21 07:25:03;;;;;;;;;16.25;13.75;;;;;-0.75;75.56;101276.31;5018272;28;45540;-71
2023/01/21 07:27:40;;;;;;;;;23.75;22.00;;;;;-0.97;75.81;101260.72;5020729;28;45330;-71
2023/01/21 07:30:07;;;;;;;;;29.50;28.00;;;;;-0.94;76.14;101279.81;5025263;28;45644;-72
2023/01/21 07:32:32;;;;;;;;;7.00;7.00;;;;;-1.05;76.64;101276.31;5016209;28;46174;-71
2023/01/21 07:34:58;;;;;;;;;5.75;5.75;;;;;-0.96;76.29;101280.44;5010164;28;45512;-71
2023/01/21 07:37:25;;;;;;;;;23.75;19.00;;;;;-1.01;76.12;101247.63;5019378;28;45603;-71
2023/01/21 07:39:54;;;;;;;;;10.00;9.00;;;;;-0.81;76.37;101257.03;5022681;28;45359;-72
2023/01/21 07:42:22;;;;;;;;;12.75;10.75;;;;;-0.83;76.37;101235.47;5003176;28;46461;-72
2023/01/21 07:44:48;;;;;;;;;7.00;7.00;;;;;-0.64;76.10;101250.81;5019055;28;45351;-71
2023/01/21 07:47:14;;;;;;;;;14.00;11.00;;;;;-0.42;75.97;101268.00;5018335;28;45423;-72
2023/01/21 07:49:39;;;;;;;;;16.50;11.75;;;;;-0.31;75.08;101263.81;5018240;28;45337;-71
2023/01/21 07:52:05;;;;;;;;;16.25;14.75;;;;;-0.19;75.00;101262.28;5017746;28;45540;-72
2023/01/21 07:54:30;;;;;;;;;24.00;21.00;;;;;-0.11;75.00;101268.06;5018509;28;45339;-72
2023/01/21 07:56:56;;;;;;;;;74.25;57.00;;;;;-0.11;74.86;101271.53;5018437;28;45458;-72
2023/01/21 07:59:22;;;;;;;;;109.67;84.00;;;;;-0.64;74.91;101176.41;5015361;28;45368;-71
2023/01/21 08:01:48;;;;;;;;;108.33;85.67;;;;;-0.08;75.13;101260.59;5016247;28;46278;-71
2023/01/21 08:04:14;;;;;;;;;24.25;21.25;;;;;0.01;74.47;101265.63;5015997;28;45502;-72
2023/01/21 08:06:40;;;;;;;;;14.25;13.75;;;;;0.13;74.60;101280.38;5016903;28;45425;-72
2023/01/21 08:09:09;;;;;;;;;18.25;14.75;;;;;0.07;74.10;101255.84;5017004;28;45322;-79
2023/01/21 08:11:35;;;;;;;;;48.00;42.00;;;;;0.26;74.23;101273.69;5016255;28;45355;-73
2023/01/21 08:14:00;;;;;;;;;82.25;61.50;;;;;0.30;74.39;101271.50;5016710;28;45462;-72
2023/01/21 08:16:26;;;;;;;;;81.25;61.75;;;;;0.48;74.30;101282.41;5018143;28;45774;-67
2023/01/21 08:18:52;;;;;;;;;38.50;33.00;;;;;0.56;74.01;101286.50;5016558;28;45411;-73
2023/01/21 08:21:19;;;;;;;;;43.25;34.75;;;;;0.56;73.78;101286.50;5015964;28;45793;-70
2023/01/21 08:23:45;;;;;;;;;54.50;42.75;;;;;0.67;73.36;101295.06;5010974;28;45501;-73
2023/01/21 08:26:13;;;;;;;;;25.25;20.00;;;;;0.68;73.15;101291.75;4977782;28;45796;-71
2023/01/21 08:28:39;;;;;;;;;16.75;16.25;;;;;0.74;73.26;101296.50;5015702;28;45549;-69
2023/01/21 08:31:11;;;;;;;;;19.00;17.50;;;;;0.79;73.48;101285.78;5014673;28;46122;-72
2023/01/21 08:33:37;;;;;;;;;32.00;29.25;;;;;0.92;73.52;101303.13;5012642;28;45368;-71
2023/01/21 08:36:05;;;;;;;;;46.25;41.25;;;;;1.03;72.96;101300.50;5013015;28;45482;-70
2023/01/21 08:38:31;;;;;;;;;49.00;42.50;;;;;1.11;73.05;101294.28;5015341;28;45518;-71
2023/01/21 08:40:57;;;;;;;;;55.00;43.75;;;;;0.13;72.68;101122.75;5014720;28;45526;-72
2023/01/21 08:43:23;;;;;;;;;52.50;43.50;;;;;0.98;72.77;101259.88;5015015;28;45459;-71
2023/01/21 08:45:49;;;;;;;;;52.75;43.00;;;;;1.35;72.67;101313.34;5015124;28;45637;-72
2023/01/21 08:48:16;;;;;;;;;46.50;42.00;;;;;1.42;72.31;101320.78;5015643;28;45359;-73
2023/01/21 08:50:42;;;;;;;;;45.75;41.75;;;;;1.48;72.35;101323.84;5015884;28;45563;-71
2023/01/21 08:53:09;;;;;;;;;53.50;43.25;;;;;1.48;70.98;101328.09;5015181;28;45652;-72
2023/01/21 08:55:35;;;;;;;;;57.75;46.75;;;;;1.45;70.70;101326.16;5015913;28;45430;-70
2023/01/21 08:58:01;;;;;;;;;33.00;32.00;;;;;1.52;71.35;101328.44;5015240;28;45655;-67
2023/01/21 09:00:26;;;;;;;;;44.50;38.25;;;;;1.59;71.39;101324.66;5016423;28;45242;-72
2023/01/21 09:02:52;;;;;;;;;28.50;27.00;;;;;1.68;70.90;101333.13;5014976;28;45416;-70
2023/01/21 09:05:18;;;;;;;;;36.75;31.00;;;;;1.69;70.78;101326.28;5015228;28;45530;-71
2023/01/21 09:07:44;;;;;;;;;19.00;17.75;;;;;1.32;71.09;101288.28;5016248;28;45493;-71
2023/01/21 09:10:11;;;;;;;;;45.25;40.00;;;;;1.78;71.00;101335.63;5014290;28;46067;-66
2023/01/21 09:12:39;;;;;;;;;40.50;35.50;;;;;1.93;70.88;101335.94;5014635;28;45555;-70
2023/01/21 09:15:05;;;;;;;;;33.50;30.75;;;;;2.16;70.50;101340.25;5014559;28;45592;-66
2023/01/21 09:17:33;;;;;;;;;34.75;31.25;;;;;2.38;70.19;101340.22;5015479;28;45425;-70
2023/01/21 09:19:58;;;;;;;;;55.25;45.00;;;;;2.52;70.87;101336.09;5013835;28;46068;-71
2023/01/21 09:22:24;;;;;;;;;72.75;55.00;;;;;2.50;69.75;101314.44;5014922;28;45538;-68
2023/01/21 09:24:49;;;;;;;;;63.50;49.75;;;;;2.75;69.74;101335.22;5015466;28;45506;-70
2023/01/21 09:27:15;;;;;;;;;63.50;48.50;;;;;2.88;69.76;101336.13;5015191;28;45427;-71
2023/01/21 09:29:40;;;;;;;;;59.50;44.50;;;;;2.91;69.24;101352.72;5015465;28;45996;-71
2023/01/21 09:32:09;;;;;;;;;58.25;48.50;;;;;2.91;69.54;101347.56;5014531;28;45556;-70
2023/01/21 09:34:35;;;;;;;;;67.50;53.25;;;;;2.83;69.27;101338.38;5015765;28;45795;-76
2023/01/21 09:37:01;;;;;;;;;64.67;49.33;;;;;2.82;68.41;101353.75;5015087;28;45294;-75
2023/01/21 09:39:27;;;;;;;;;50.75;43.75;;;;;2.70;68.90;101349.44;5015449;28;45309;-73
2023/01/21 09:41:55;;;;;;;;;30.50;24.50;;;;;2.73;69.43;101372.91;5014678;28;45721;-72
2023/01/21 09:44:35;;;;;;;;;29.75;27.25;;;;;2.63;67.52;101352.38;5015682;28;45411;-70
2023/01/21 09:47:07;;;;;;;;;29.00;27.00;;;;;2.89;68.10;101379.22;5015616;28;45423;-71
2023/01/21 09:49:33;;;;;;;;;41.75;34.50;;;;;3.02;67.73;101378.44;5014836;28;46015;-70
2023/01/21 09:52:01;;;;;;;;;25.75;21.50;;;;;3.13;68.28;101382.72;5014992;28;45424;-73
2023/01/21 09:54:30;;;;;;;;;26.75;25.00;;;;;2.86;67.76;101319.63;5014933;28;45593;-70
2023/01/21 09:56:58;;;;;;;;;33.00;30.00;;;;;3.37;66.86;101389.66;5014456;28;45518;-72
2023/01/21 09:59:42;;;;;;;;;23.75;21.25;;;;;3.48;66.98;101389.50;5010991;28;45923;-71
2023/01/21 10:02:37;;;;;;;;;25.25;23.00;;;;;3.51;66.52;101389.75;5011703;28;45476;-71
2023/01/21 10:05:15;;;;;;;;;26.75;24.75;;;;;3.55;66.10;101389.19;4998802;28;45471;-72
2023/01/21 10:07:51;;;;;;;;;37.50;32.50;;;;;3.45;64.89;101368.66;5014124;28;45463;-72
2023/01/21 10:10:24;;;;;;;;;45.50;38.50;;;;;3.59;65.09;101391.19;5015778;28;46042;-70
2023/01/21 10:13:04;;;;;;;;;49.50;42.25;;;;;3.65;65.51;101394.22;5014800;28;45494;-73
2023/01/21 10:15:45;;;;;;;;;43.75;36.25;;;;;3.55;66.10;101397.81;5017838;28;45620;-72
2023/01/21 10:18:27;;;;;;;;;38.25;35.00;;;;;3.57;66.38;101405.69;5016321;28;45328;-72
2023/01/21 10:20:59;;;;;;;;;37.00;33.75;;;;;3.63;66.00;101408.72;5015273;28;45551;-74
2023/01/21 10:23:37;;;;;;;;;61.00;48.75;;;;;3.66;66.96;101416.69;5018198;28;45759;-70
2023/01/21 10:26:08;;;;;;;;;47.50;43.25;;;;;3.67;64.00;101413.31;5017214;28;45558;-70
2023/01/21 10:28:41;;;;;;;;;63.00;48.00;;;;;3.71;65.25;101415.31;5014612;28;45479;-71
2023/01/21 10:31:28;;;;;;;;;81.25;63.25;;;;;3.78;65.48;101422.72;5016753;28;46181;-71
2023/01/21 10:33:55;;;;;;;;;53.00;44.00;;;;;3.83;65.54;101419.56;5016708;28;45402;-71
2023/01/21 10:36:30;;;;;;;;;103.33;82.33;;;;;3.94;65.83;101416.97;5018381;28;45551;-71
2023/01/21 10:39:14;;;;;;;;;74.75;58.25;;;;;4.04;66.05;101418.50;5017571;28;45403;-71
2023/01/21 10:41:51;;;;;;;;;72.25;55.50;;;;;4.08;66.17;101417.94;5017864;28;46331;-72
2023/01/21 10:44:31;;;;;;;;;70.25;56.50;;;;;3.23;65.95;101260.34;5011974;28;45501;-71
2023/01/21 10:47:12;;;;;;;;;71.75;55.75;;;;;4.20;66.17;101420.47;5008295;28;45606;-68
2023/01/21 10:50:11;;;;;;;;;70.00;57.50;;;;;4.23;66.41;101423.25;5006743;28;46098;-71
2023/01/21 10:53:03;;;;;;;;;74.00;59.00;;;;;4.27;66.02;101414.03;5008833;28;45529;-70
2023/01/21 10:55:38;;;;;;;;;73.75;60.50;;;;;4.36;66.49;101415.56;4995916;28;45411;-71
2023/01/21 10:58:25;;;;;;;;;68.25;55.50;;;;;4.47;66.04;101420.56;5005218;28;45669;-70
2023/01/21 11:00:56;;;;;;;;;66.00;51.75;;;;;4.61;66.26;101411.16;5002342;28;45493;-68
2023/01/21 11:03:37;;;;;;;;;64.50;52.00;;;;;4.86;65.92;101406.84;5002105;28;45386;-71
2023/01/21 11:06:08;;;;;;;;;79.50;61.50;;;;;5.09;65.81;101407.47;4998733;28;45387;-69
2023/01/21 11:08:33;;;;;;;;;81.50;63.25;;;;;5.32;65.30;101403.78;5002064;28;46123;-71
2023/01/21 11:11:00;;;;;;;;;102.33;78.67;;;;;5.57;65.20;101406.25;4999711;28;45407;-70
2023/01/21 11:13:26;;;;;;;;;104.33;87.67;;;;;5.46;63.76;101356.31;5001910;28;45609;-69
2023/01/21 11:15:56;;;;;;;;;92.67;75.00;;;;;5.57;64.09;101328.47;5015280;28;45444;-71
2023/01/21 11:18:34;;;;;;;;;93.33;73.00;;;;;6.13;64.00;101380.41;5009350;28;45436;-71
2023/01/21 11:21:12;;;;;;;;;98.33;83.00;;;;;6.19;62.49;101353.97;5008580;28;45532;-71
2023/01/21 11:23:41;;;;;;;;;79.50;61.75;;;;;6.37;62.32;101372.34;5009485;28;45685;-70
2023/01/21 11:26:19;;;;;;;;;103.00;86.67;;;;;6.43;63.42;101374.41;5013317;28;45442;-71
2023/01/21 11:28:45;;;;;;;;;83.00;62.75;;;;;6.38;63.96;101358.53;5004565;28;45575;-70
2023/01/21 11:31:25;;;;;;;;;80.50;61.00;;;;;6.57;63.21;101358.84;5001280;28;46271;-72
2023/01/21 11:33:54;;;;;;;;;56.25;45.00;;;;;6.68;62.42;101338.69;5005642;28;46003;-69
2023/01/21 11:36:20;;;;;;;;;61.50;50.25;;;;;6.85;61.68;101355.25;5006257;28;45558;-69